Startpagina
METAR-TAF:

METAR-TAF

Vliegvelden :

San Fernando, Argentinië

breedte: 34-27-11S, lengte: 058-35-23W, hoogte: 3 m

Actueel weer

Dit bericht is 36 minuten geleden gemaakt, om 07:00 UTC
Wind 12 kt uit het zuiden
Temperatuur 19°C
Vochtigheid 52%
Druk 1015 hPa
Zicht 10 km of meer
geen wolken onder 1500 m en geen cumulonimbus

METAR: SADF 200700Z 18012KT CAVOK 19/09 Q1015

Tijdstip: 04:36 (07:36 UTC)

Verwachting

Dit bericht is 2 uur en het 36 minuten geleden gemaakt, om 05:00 UTC
Verwachting geldig van 20 om 06 UTC tot 21 om 06 UTC
Wind 15 kt uit het zuiden met uitschieters tot 25 kt
Zicht 10 km of meer
geen wolken onder 1500 m en geen cumulonimbus
Tijdelijke
van 20 om 11 UTC tot 20 om 16 UTC
Wind 20 kt uit het zuidzuidoosten met uitschieters tot 35 kt
Wijzigt naar
van 20 om 19 UTC tot 20 om 22 UTC
Wind 15 kt uit het zuidzuidwesten

TAF: SADF 200500Z 2006/2106 18015G25KT CAVOK TX26/2019Z TN16/2009Z TEMPO 2011/2016 16020G35KT BECMG 2019/2022 20015KT

Waarnemingen en weersverwachtingen van meer dan 4000 vliegvelden (METAR en TAF).

De beschikbare stations zijn de gele en rode punten op de kaart.

Ga met uw muis naar het station om de naam te zien.

Klik dan om waarnemingen en weersverwachtingen te zien.

kaart wijzigen: klik op de groene knoppen met een zwart kruis om in te zoomen, op de groene knop met een streepje om uit te zoomen of op de groene pijlen voor aangrenzende kaarten.


METAR-TAF: